sensor_id;sensor_type;location;lat;lon;timestamp;pressure;altitude;pressure_sealevel;temperature;humidity
44079;BME280;29744;49.078;12.878;2022-08-19T00:00:49;95733.69;;;21.58;41.39
44079;BME280;29744;49.078;12.878;2022-08-19T00:05:50;95731.34;;;21.57;42.01
44079;BME280;29744;49.078;12.878;2022-08-19T00:10:50;95738.75;;;21.56;41.84
44079;BME280;29744;49.078;12.878;2022-08-19T00:15:50;95743.03;;;21.57;41.53
44079;BME280;29744;49.078;12.878;2022-08-19T00:20:52;95743.03;;;21.57;41.88
44079;BME280;29744;49.078;12.878;2022-08-19T00:25:52;95764.09;;;21.57;41.88
44079;BME280;29744;49.078;12.878;2022-08-19T00:30:53;95785.13;;;21.56;41.77
44079;BME280;29744;49.078;12.878;2022-08-19T00:35:54;95799.56;;;21.57;41.53
44079;BME280;29744;49.078;12.878;2022-08-19T00:40:55;95823.34;;;21.56;41.78
44079;BME280;29744;49.078;12.878;2022-08-19T00:45:56;95832.28;;;21.57;41.85
44079;BME280;29744;49.078;12.878;2022-08-19T00:50:56;95835.03;;;21.57;41.53
44079;BME280;29744;49.078;12.878;2022-08-19T00:55:59;95839.69;;;21.56;41.98
44079;BME280;29744;49.078;12.878;2022-08-19T01:01:03;95831.50;;;21.56;41.73
44079;BME280;29744;49.078;12.878;2022-08-19T01:06:04;95830.34;;;21.57;41.89
44079;BME280;29744;49.078;12.878;2022-08-19T01:11:06;95828.00;;;21.56;41.96
44079;BME280;29744;49.078;12.878;2022-08-19T01:16:09;95817.88;;;21.56;41.90
44079;BME280;29744;49.078;12.878;2022-08-19T01:21:23;95825.28;;;21.56;41.86
44079;BME280;29744;49.078;12.878;2022-08-19T01:26:26;95828.78;;;21.56;41.94
44079;BME280;29744;49.078;12.878;2022-08-19T01:31:28;95806.56;;;21.58;41.97
44079;BME280;29744;49.078;12.878;2022-08-19T01:36:42;95812.41;;;21.56;41.88
44079;BME280;29744;49.078;12.878;2022-08-19T01:41:47;95798.00;;;21.56;41.92
44079;BME280;29744;49.078;12.878;2022-08-19T01:46:48;95787.09;;;21.56;41.77
44079;BME280;29744;49.078;12.878;2022-08-19T01:51:49;95803.44;;;21.56;42.02
44079;BME280;29744;49.078;12.878;2022-08-19T01:56:51;95830.72;;;21.56;41.92
44079;BME280;29744;49.078;12.878;2022-08-19T02:01:52;95823.72;;;21.55;41.93
44079;BME280;29744;49.078;12.878;2022-08-19T02:06:52;95831.91;;;21.55;41.96
44079;BME280;29744;49.078;12.878;2022-08-19T02:11:53;95824.88;;;21.54;41.97
44079;BME280;29744;49.078;12.878;2022-08-19T02:16:53;95829.56;;;21.53;41.88
44079;BME280;29744;49.078;12.878;2022-08-19T02:21:53;95823.72;;;21.55;41.83
44079;BME280;29744;49.078;12.878;2022-08-19T02:26:54;95824.88;;;21.54;42.03
44079;BME280;29744;49.078;12.878;2022-08-19T02:31:54;95827.59;;;21.54;41.87
44079;BME280;29744;49.078;12.878;2022-08-19T02:36:54;95820.19;;;21.54;41.49
44079;BME280;29744;49.078;12.878;2022-08-19T02:41:54;95801.50;;;21.53;41.79
44079;BME280;29744;49.078;12.878;2022-08-19T02:46:55;95794.09;;;21.53;42.15
44079;BME280;29744;49.078;12.878;2022-08-19T02:51:55;95808.91;;;21.52;42.24
44079;BME280;29744;49.078;12.878;2022-08-19T02:56:55;95799.94;;;21.52;41.59
44079;BME280;29744;49.078;12.878;2022-08-19T03:01:56;95794.47;;;21.52;42.06
44079;BME280;29744;49.078;12.878;2022-08-19T03:06:56;95796.41;;;21.51;42.05
44079;BME280;29744;49.078;12.878;2022-08-19T03:11:57;95789.78;;;21.52;42.03
44079;BME280;29744;49.078;12.878;2022-08-19T03:16:57;95795.63;;;21.50;41.93
44079;BME280;29744;49.078;12.878;2022-08-19T03:21:58;95815.50;;;21.51;42.23
44079;BME280;29744;49.078;12.878;2022-08-19T03:26:58;95831.09;;;21.50;42.07
44079;BME280;29744;49.078;12.878;2022-08-19T03:32:00;95849.03;;;21.52;42.40
44079;BME280;29744;49.078;12.878;2022-08-19T03:37:04;95873.22;;;21.53;42.02
44079;BME280;29744;49.078;12.878;2022-08-19T03:42:05;95879.03;;;21.52;41.87
44079;BME280;29744;49.078;12.878;2022-08-19T03:47:05;95862.69;;;21.52;42.35
44079;BME280;29744;49.078;12.878;2022-08-19T03:52:06;95859.94;;;21.52;41.84
44079;BME280;29744;49.078;12.878;2022-08-19T03:57:07;95854.50;;;21.52;41.82
44079;BME280;29744;49.078;12.878;2022-08-19T04:02:11;95861.50;;;21.53;42.24
44079;BME280;29744;49.078;12.878;2022-08-19T04:07:13;95866.19;;;21.52;41.91
44079;BME280;29744;49.078;12.878;2022-08-19T04:12:16;95891.13;;;21.50;42.06
44079;BME280;29744;49.078;12.878;2022-08-19T04:17:16;95910.22;;;21.50;42.10
44079;BME280;29744;49.078;12.878;2022-08-19T04:22:16;95910.22;;;21.50;41.82
44079;BME280;29744;49.078;12.878;2022-08-19T04:27:18;95911.00;;;21.51;41.94
44079;BME280;29744;49.078;12.878;2022-08-19T04:32:18;95900.09;;;21.51;41.98
44079;BME280;29744;49.078;12.878;2022-08-19T04:37:19;95900.09;;;21.51;42.16
44079;BME280;29744;49.078;12.878;2022-08-19T04:42:19;95908.28;;;21.51;42.12
44079;BME280;29744;49.078;12.878;2022-08-19T04:47:39;95914.09;;;21.49;42.01
44079;BME280;29744;49.078;12.878;2022-08-19T04:52:40;95919.19;;;21.51;42.26
44079;BME280;29744;49.078;12.878;2022-08-19T04:57:42;95920.34;;;21.50;42.21
44079;BME280;29744;49.078;12.878;2022-08-19T05:02:43;95921.91;;;21.51;41.82
44079;BME280;29744;49.078;12.878;2022-08-19T05:07:43;95930.09;;;21.51;42.22
44079;BME280;29744;49.078;12.878;2022-08-19T05:12:43;95944.91;;;21.50;42.08
44079;BME280;29744;49.078;12.878;2022-08-19T05:17:44;95945.69;;;21.50;42.17
44079;BME280;29744;49.078;12.878;2022-08-19T05:23:04;95942.16;;;21.50;41.99
44079;BME280;29744;49.078;12.878;2022-08-19T05:28:04;95956.59;;;21.50;41.95
44079;BME280;29744;49.078;12.878;2022-08-19T05:33:05;95958.53;;;21.50;42.23
44079;BME280;29744;49.078;12.878;2022-08-19T05:38:07;95962.06;;;21.50;42.03
44079;BME280;29744;49.078;12.878;2022-08-19T05:43:08;95958.53;;;21.50;42.48
44079;BME280;29744;49.078;12.878;2022-08-19T05:48:10;95958.53;;;21.50;42.31
44079;BME280;29744;49.078;12.878;2022-08-19T05:53:11;95952.31;;;21.49;42.36
44079;BME280;29744;49.078;12.878;2022-08-19T05:58:12;95948.78;;;21.49;42.12
44079;BME280;29744;49.078;12.878;2022-08-19T06:03:12;95954.25;;;21.49;42.15
44079;BME280;29744;49.078;12.878;2022-08-19T06:08:12;95950.34;;;21.50;42.25
44079;BME280;29744;49.078;12.878;2022-08-19T06:13:12;95953.88;;;21.50;41.93
44079;BME280;29744;49.078;12.878;2022-08-19T06:18:14;95943.75;;;21.51;41.94
44079;BME280;29744;49.078;12.878;2022-08-19T06:23:15;95941.00;;;21.51;41.82
44079;BME280;29744;49.078;12.878;2022-08-19T06:28:15;95930.88;;;21.52;42.06
44079;BME280;29744;49.078;12.878;2022-08-19T06:33:15;95916.06;;;21.53;42.09
44079;BME280;29744;49.078;12.878;2022-08-19T06:38:16;95918.41;;;21.50;42.07
44079;BME280;29744;49.078;12.878;2022-08-19T06:43:16;95938.28;;;21.51;41.86
44079;BME280;29744;49.078;12.878;2022-08-19T06:48:16;95934.38;;;21.52;42.28
44079;BME280;29744;49.078;12.878;2022-08-19T06:53:17;95925.03;;;21.53;42.09
44079;BME280;29744;49.078;12.878;2022-08-19T06:58:19;95922.31;;;21.53;42.11
44079;BME280;29744;49.078;12.878;2022-08-19T07:03:19;95936.75;;;21.54;42.28
44079;BME280;29744;49.078;12.878;2022-08-19T07:08:21;95916.06;;;21.53;41.80
44079;BME280;29744;49.078;12.878;2022-08-19T07:13:21;95905.16;;;21.53;42.35
44079;BME280;29744;49.078;12.878;2022-08-19T07:18:22;95901.28;;;21.54;42.11
44079;BME280;29744;49.078;12.878;2022-08-19T07:23:22;95916.84;;;21.53;41.93
44079;BME280;29744;49.078;12.878;2022-08-19T07:28:23;95943.75;;;21.55;42.05
44079;BME280;29744;49.078;12.878;2022-08-19T07:33:23;95929.34;;;21.54;42.11
44079;BME280;29744;49.078;12.878;2022-08-19T07:38:24;95934.78;;;21.54;41.85
44079;BME280;29744;49.078;12.878;2022-08-19T07:43:25;95948.84;;;21.56;41.97
44079;BME280;29744;49.078;12.878;2022-08-19T07:48:28;95965.19;;;21.56;42.11
44079;BME280;29744;49.078;12.878;2022-08-19T07:53:29;95961.69;;;21.56;42.02
44079;BME280;29744;49.078;12.878;2022-08-19T07:58:32;95973.38;;;21.56;41.84
44079;BME280;29744;49.078;12.878;2022-08-19T08:03:36;95981.56;;;21.56;41.51
44079;BME280;29744;49.078;12.878;2022-08-19T08:08:55;95982.72;;;21.55;41.80
44079;BME280;29744;49.078;12.878;2022-08-19T08:14:11;95977.66;;;21.54;41.66
44079;BME280;29744;49.078;12.878;2022-08-19T08:19:14;95962.06;;;21.54;41.99
44079;BME280;29744;49.078;12.878;2022-08-19T08:24:17;95963.63;;;21.55;41.82
44079;BME280;29744;49.078;12.878;2022-08-19T08:29:18;95958.19;;;21.55;42.20
44079;BME280;29744;49.078;12.878;2022-08-19T08:34:20;95948.84;;;21.56;41.85
44079;BME280;29744;49.078;12.878;2022-08-19T08:39:20;95950.00;;;21.55;42.02
44079;BME280;29744;49.078;12.878;2022-08-19T08:49:43;95946.09;;;21.56;41.89
44079;BME280;29744;49.078;12.878;2022-08-19T08:54:47;95942.22;;;21.57;41.61
44079;BME280;29744;49.078;12.878;2022-08-19T08:59:50;95945.72;;;21.58;42.00
44079;BME280;29744;49.078;12.878;2022-08-19T09:04:54;95948.84;;;21.56;41.59
44079;BME280;29744;49.078;12.878;2022-08-19T09:10:02;95949.63;;;21.57;41.73
44079;BME280;29744;49.078;12.878;2022-08-19T09:15:09;95943.78;;;21.58;42.15
44079;BME280;29744;49.078;12.878;2022-08-19T09:25:14;95926.25;;;21.59;42.02
44079;BME280;29744;49.078;12.878;2022-08-19T09:30:19;95950.44;;;21.61;41.53
44079;BME280;29744;49.078;12.878;2022-08-19T09:35:22;95953.88;;;21.50;41.89
44079;BME280;29744;49.078;12.878;2022-08-19T09:40:23;95955.47;;;21.59;42.29
44079;BME280;29744;49.078;12.878;2022-08-19T09:45:23;95953.97;;;21.61;41.79
44079;BME280;29744;49.078;12.878;2022-08-19T09:50:24;95960.19;;;21.62;41.87
44079;BME280;29744;49.078;12.878;2022-08-19T09:55:25;95955.13;;;21.64;41.85
44079;BME280;29744;49.078;12.878;2022-08-19T10:00:26;95964.88;;;21.65;41.43
44079;BME280;29744;49.078;12.878;2022-08-19T10:05:26;95966.06;;;21.64;41.37
44079;BME280;29744;49.078;12.878;2022-08-19T10:10:46;95972.28;;;21.64;41.85
44079;BME280;29744;49.078;12.878;2022-08-19T10:15:47;95975.03;;;21.64;41.75
44079;BME280;29744;49.078;12.878;2022-08-19T10:20:51;95975.44;;;21.66;41.79
44079;BME280;29744;49.078;12.878;2022-08-19T10:25:52;95967.63;;;21.65;41.79
44079;BME280;29744;49.078;12.878;2022-08-19T10:30:53;95962.94;;;21.65;41.48
44079;BME280;29744;49.078;12.878;2022-08-19T10:36:01;95962.94;;;21.65;41.46
44079;BME280;29744;49.078;12.878;2022-08-19T10:41:11;95951.25;;;21.65;41.25
44079;BME280;29744;49.078;12.878;2022-08-19T10:46:13;95940.72;;;21.67;41.86
44079;BME280;29744;49.078;12.878;2022-08-19T10:51:15;95937.22;;;21.66;41.44
44079;BME280;29744;49.078;12.878;2022-08-19T10:56:34;95946.97;;;21.67;42.00
44079;BME280;29744;49.078;12.878;2022-08-19T11:01:54;95943.06;;;21.68;41.71
44079;BME280;29744;49.078;12.878;2022-08-19T11:06:58;95924.75;;;21.69;41.71
44079;BME280;29744;49.078;12.878;2022-08-19T11:11:59;95931.78;;;21.70;41.60
44079;BME280;29744;49.078;12.878;2022-08-19T11:16:59;95920.09;;;21.69;41.82
44079;BME280;29744;49.078;12.878;2022-08-19T11:22:00;95911.50;;;21.71;41.79
44079;BME280;29744;49.078;12.878;2022-08-19T11:27:06;95911.91;;;21.73;41.68
44079;BME280;29744;49.078;12.878;2022-08-19T11:32:09;95909.97;;;21.73;41.64
44079;BME280;29744;49.078;12.878;2022-08-19T11:37:10;95901.00;;;21.73;41.50
44079;BME280;29744;49.078;12.878;2022-08-19T11:42:11;95898.25;;;21.73;41.76
44079;BME280;29744;49.078;12.878;2022-08-19T11:47:30;95896.31;;;21.73;41.50
44079;BME280;29744;49.078;12.878;2022-08-19T11:52:30;95889.69;;;21.74;42.35
44079;BME280;29744;49.078;12.878;2022-08-19T11:57:31;95876.84;;;21.75;42.13
44079;BME280;29744;49.078;12.878;2022-08-19T12:02:31;95885.81;;;21.75;41.92
44079;BME280;29744;49.078;12.878;2022-08-19T12:07:33;95870.22;;;21.76;41.89
44079;BME280;29744;49.078;12.878;2022-08-19T12:12:34;95872.56;;;21.77;42.40
44079;BME280;29744;49.078;12.878;2022-08-19T12:17:34;95876.06;;;21.78;42.12
44079;BME280;29744;49.078;12.878;2022-08-19T12:22:35;95886.59;;;21.79;42.40
44079;BME280;29744;49.078;12.878;2022-08-19T12:27:37;95874.91;;;21.79;42.31
44079;BME280;29744;49.078;12.878;2022-08-19T12:32:37;95877.25;;;21.80;42.40
44079;BME280;29744;49.078;12.878;2022-08-19T12:37:40;95878.03;;;21.81;42.20
44079;BME280;29744;49.078;12.878;2022-08-19T12:42:42;95879.97;;;21.80;42.36
44079;BME280;29744;49.078;12.878;2022-08-19T12:47:42;95874.13;;;21.82;42.20
44079;BME280;29744;49.078;12.878;2022-08-19T12:52:43;95874.91;;;21.83;42.16
44079;BME280;29744;49.078;12.878;2022-08-19T12:57:44;95873.78;;;21.84;42.48
44079;BME280;29744;49.078;12.878;2022-08-19T13:02:46;95869.09;;;21.84;42.28
44079;BME280;29744;49.078;12.878;2022-08-19T13:07:47;95862.47;;;21.85;42.59
44079;BME280;29744;49.078;12.878;2022-08-19T13:12:49;95863.25;;;21.86;42.37
44079;BME280;29744;49.078;12.878;2022-08-19T13:17:52;95866.38;;;21.88;42.31
44079;BME280;29744;49.078;12.878;2022-08-19T13:22:54;95869.88;;;21.88;42.41
44079;BME280;29744;49.078;12.878;2022-08-19T13:27:54;95871.84;;;21.88;42.38
44079;BME280;29744;49.078;12.878;2022-08-19T13:32:55;95877.28;;;21.88;42.67
44079;BME280;29744;49.078;12.878;2022-08-19T13:38:11;95884.69;;;21.87;42.39
44079;BME280;29744;49.078;12.878;2022-08-19T13:43:11;95876.50;;;21.87;42.69
44079;BME280;29744;49.078;12.878;2022-08-19T13:48:12;95881.19;;;21.87;42.31
44079;BME280;29744;49.078;12.878;2022-08-19T13:53:12;95899.13;;;21.88;42.43
44079;BME280;29744;49.078;12.878;2022-08-19T13:58:12;95892.13;;;21.87;42.76
44079;BME280;29744;49.078;12.878;2022-08-19T14:03:13;95896.41;;;21.88;42.32
44079;BME280;29744;49.078;12.878;2022-08-19T14:08:14;95885.88;;;21.86;42.23
44079;BME280;29744;49.078;12.878;2022-08-19T14:13:17;95892.13;;;21.87;42.54
44079;BME280;29744;49.078;12.878;2022-08-19T14:18:18;95872.22;;;21.86;42.56
44079;BME280;29744;49.078;12.878;2022-08-19T14:23:18;95897.56;;;21.87;42.40
44079;BME280;29744;49.078;12.878;2022-08-19T14:28:20;95883.94;;;21.87;42.51
44079;BME280;29744;49.078;12.878;2022-08-19T14:33:20;95877.28;;;21.88;42.79
44079;BME280;29744;49.078;12.878;2022-08-19T14:38:20;95883.94;;;21.87;42.29
44079;BME280;29744;49.078;12.878;2022-08-19T14:43:21;95858.56;;;21.86;42.88
44079;BME280;29744;49.078;12.878;2022-08-19T14:48:22;95865.59;;;21.87;42.56
44079;BME280;29744;49.078;12.878;2022-08-19T14:53:23;95865.59;;;21.87;42.67
44079;BME280;29744;49.078;12.878;2022-08-19T14:58:23;95869.09;;;21.88;42.50
44079;BME280;29744;49.078;12.878;2022-08-19T15:03:23;95866.38;;;21.88;42.32
44079;BME280;29744;49.078;12.878;2022-08-19T15:08:24;95864.44;;;21.88;42.64
44079;BME280;29744;49.078;12.878;2022-08-19T15:13:26;95862.47;;;21.89;42.87
44079;BME280;29744;49.078;12.878;2022-08-19T15:18:27;95862.47;;;21.89;42.38
44079;BME280;29744;49.078;12.878;2022-08-19T15:23:27;95874.19;;;21.89;42.39
44079;BME280;29744;49.078;12.878;2022-08-19T15:28:28;95867.16;;;21.88;42.36
44079;BME280;29744;49.078;12.878;2022-08-19T15:33:34;95861.31;;;21.90;42.35
44079;BME280;29744;49.078;12.878;2022-08-19T15:38:38;95857.81;;;21.89;42.30
44079;BME280;29744;49.078;12.878;2022-08-19T15:43:41;95862.47;;;21.89;42.27
44079;BME280;29744;49.078;12.878;2022-08-19T15:48:41;95845.31;;;21.88;42.39
44079;BME280;29744;49.078;12.878;2022-08-19T15:53:42;95860.53;;;21.89;42.44
44079;BME280;29744;49.078;12.878;2022-08-19T15:58:43;95863.66;;;21.88;42.12
44079;BME280;29744;49.078;12.878;2022-08-19T16:04:02;95853.91;;;21.87;42.27
44079;BME280;29744;49.078;12.878;2022-08-19T16:09:24;95849.22;;;21.87;42.39
44079;BME280;29744;49.078;12.878;2022-08-19T16:14:32;95856.63;;;21.87;42.19
44079;BME280;29744;49.078;12.878;2022-08-19T16:19:33;95857.78;;;21.86;42.37
44079;BME280;29744;49.078;12.878;2022-08-19T16:24:34;95856.63;;;21.87;42.65
44079;BME280;29744;49.078;12.878;2022-08-19T16:29:34;95862.09;;;21.87;42.03
44079;BME280;29744;49.078;12.878;2022-08-19T16:34:35;95872.22;;;21.86;42.14
44079;BME280;29744;49.078;12.878;2022-08-19T16:39:37;95878.47;;;21.87;42.17
44079;BME280;29744;49.078;12.878;2022-08-19T16:44:43;95883.94;;;21.87;42.07
44079;BME280;29744;49.078;12.878;2022-08-19T16:49:44;95874.16;;;21.86;42.21
44079;BME280;29744;49.078;12.878;2022-08-19T16:54:44;95873.38;;;21.85;42.64
44079;BME280;29744;49.078;12.878;2022-08-19T16:59:45;95881.56;;;21.85;42.50
44079;BME280;29744;49.078;12.878;2022-08-19T17:04:45;95886.25;;;21.85;42.44
44079;BME280;29744;49.078;12.878;2022-08-19T17:09:48;95894.44;;;21.85;42.44
44079;BME280;29744;49.078;12.878;2022-08-19T17:14:49;95889.78;;;21.85;41.97
44079;BME280;29744;49.078;12.878;2022-08-19T17:19:49;95887.41;;;21.84;42.41
44079;BME280;29744;49.078;12.878;2022-08-19T17:24:50;95899.47;;;21.83;42.07
44079;BME280;29744;49.078;12.878;2022-08-19T17:29:50;95906.53;;;21.84;42.56
44079;BME280;29744;49.078;12.878;2022-08-19T17:34:52;95923.25;;;21.82;42.29
44079;BME280;29744;49.078;12.878;2022-08-19T17:39:55;95918.59;;;21.83;41.98
44079;BME280;29744;49.078;12.878;2022-08-19T17:44:55;95931.44;;;21.82;42.35
44079;BME280;29744;49.078;12.878;2022-08-19T17:49:58;95928.72;;;21.82;42.19
44079;BME280;29744;49.078;12.878;2022-08-19T17:54:58;95933.41;;;21.81;42.23
44079;BME280;29744;49.078;12.878;2022-08-19T17:59:58;95940.81;;;21.81;42.36
44079;BME280;29744;49.078;12.878;2022-08-19T18:04:59;95940.81;;;21.81;42.41
44079;BME280;29744;49.078;12.878;2022-08-19T18:09:59;95972.78;;;21.80;42.68
44079;BME280;29744;49.078;12.878;2022-08-19T18:15:01;95968.47;;;21.79;42.09
44079;BME280;29744;49.078;12.878;2022-08-19T18:20:09;95952.88;;;21.80;42.34
44079;BME280;29744;49.078;12.878;2022-08-19T18:25:19;95943.91;;;21.79;42.53
44079;BME280;29744;49.078;12.878;2022-08-19T18:30:23;95952.09;;;21.79;42.52
44079;BME280;29744;49.078;12.878;2022-08-19T18:35:27;95954.06;;;21.79;42.24
44079;BME280;29744;49.078;12.878;2022-08-19T18:40:30;95942.34;;;21.78;42.29
44079;BME280;29744;49.078;12.878;2022-08-19T18:45:49;95950.13;;;21.76;42.48
44079;BME280;29744;49.078;12.878;2022-08-19T18:51:10;95957.94;;;21.74;42.73
44079;BME280;29744;49.078;12.878;2022-08-19T18:56:13;95963.00;;;21.76;42.16
44079;BME280;29744;49.078;12.878;2022-08-19T19:01:20;95981.31;;;21.75;42.46
44079;BME280;29744;49.078;12.878;2022-08-19T19:06:27;95990.28;;;21.76;42.50
44079;BME280;29744;49.078;12.878;2022-08-19T19:11:32;96004.72;;;21.76;42.22
44079;BME280;29744;49.078;12.878;2022-08-19T19:16:32;96003.53;;;21.74;42.59
44079;BME280;29744;49.078;12.878;2022-08-19T19:21:33;96037.06;;;21.74;42.60
44079;BME280;29744;49.078;12.878;2022-08-19T19:26:34;96015.25;;;21.74;42.67
44079;BME280;29744;49.078;12.878;2022-08-19T19:31:36;96010.56;;;21.75;42.61
44079;BME280;29744;49.078;12.878;2022-08-19T19:36:38;96020.69;;;21.74;42.74
44079;BME280;29744;49.078;12.878;2022-08-19T19:41:38;96030.84;;;21.74;42.87
44079;BME280;29744;49.078;12.878;2022-08-19T19:46:41;96025.38;;;21.74;42.92
44079;BME280;29744;49.078;12.878;2022-08-19T19:51:41;96026.16;;;21.74;42.41
44079;BME280;29744;49.078;12.878;2022-08-19T19:56:42;96027.31;;;21.73;42.65
44079;BME280;29744;49.078;12.878;2022-08-19T20:01:44;96030.03;;;21.73;42.79
44079;BME280;29744;49.078;12.878;2022-08-19T20:06:45;96028.09;;;21.74;42.79
44079;BME280;29744;49.078;12.878;2022-08-19T20:11:47;96029.25;;;21.73;42.62
44079;BME280;29744;49.078;12.878;2022-08-19T20:16:48;96032.78;;;21.73;42.44
44079;BME280;29744;49.078;12.878;2022-08-19T20:21:49;96025.75;;;21.72;42.78
44079;BME280;29744;49.078;12.878;2022-08-19T20:26:50;96033.16;;;21.72;42.74
44079;BME280;29744;49.078;12.878;2022-08-19T20:31:50;96030.81;;;21.70;42.84
44079;BME280;29744;49.078;12.878;2022-08-19T20:36:50;96044.47;;;21.70;42.90
44079;BME280;29744;49.078;12.878;2022-08-19T20:41:51;96058.09;;;21.70;42.82
44079;BME280;29744;49.078;12.878;2022-08-19T20:46:52;96044.47;;;21.70;42.81
44079;BME280;29744;49.078;12.878;2022-08-19T20:51:54;96035.47;;;21.70;42.90
44079;BME280;29744;49.078;12.878;2022-08-19T20:56:55;96032.75;;;21.70;42.82
44079;BME280;29744;49.078;12.878;2022-08-19T21:01:55;96031.19;;;21.69;43.15
44079;BME280;29744;49.078;12.878;2022-08-19T21:06:56;96034.69;;;21.69;42.78
44079;BME280;29744;49.078;12.878;2022-08-19T21:11:56;96039.38;;;21.69;43.11
44079;BME280;29744;49.078;12.878;2022-08-19T21:16:57;96053.03;;;21.69;42.64
44079;BME280;29744;49.078;12.878;2022-08-19T21:21:59;96056.53;;;21.69;42.63
44079;BME280;29744;49.078;12.878;2022-08-19T21:27:00;96065.88;;;21.68;42.72
44079;BME280;29744;49.078;12.878;2022-08-19T21:32:00;96067.44;;;21.69;42.53
44079;BME280;29744;49.078;12.878;2022-08-19T21:37:01;96054.97;;;21.68;42.64
44079;BME280;29744;49.078;12.878;2022-08-19T21:42:01;96071.34;;;21.68;42.83
44079;BME280;29744;49.078;12.878;2022-08-19T21:47:01;96075.22;;;21.67;43.21
44079;BME280;29744;49.078;12.878;2022-08-19T21:52:04;96078.75;;;21.68;42.80
44079;BME280;29744;49.078;12.878;2022-08-19T21:57:05;96077.97;;;21.67;42.83
44079;BME280;29744;49.078;12.878;2022-08-19T22:02:05;96083.41;;;21.67;42.50
44079;BME280;29744;49.078;12.878;2022-08-19T22:07:07;96080.69;;;21.67;43.11
44079;BME280;29744;49.078;12.878;2022-08-19T22:12:22;96074.44;;;21.67;42.77
44079;BME280;29744;49.078;12.878;2022-08-19T22:17:24;96085.38;;;21.67;42.65
44079;BME280;29744;49.078;12.878;2022-08-19T22:22:29;96090.81;;;21.67;43.24
44079;BME280;29744;49.078;12.878;2022-08-19T22:27:30;96090.03;;;21.66;43.29
44079;BME280;29744;49.078;12.878;2022-08-19T22:32:31;96083.00;;;21.65;43.24
44079;BME280;29744;49.078;12.878;2022-08-19T22:37:31;96069.38;;;21.65;42.87
44079;BME280;29744;49.078;12.878;2022-08-19T22:42:31;96073.25;;;21.64;42.82
44079;BME280;29744;49.078;12.878;2022-08-19T22:47:32;96060.41;;;21.65;43.18
44079;BME280;29744;49.078;12.878;2022-08-19T22:52:32;96056.88;;;21.64;43.15
44079;BME280;29744;49.078;12.878;2022-08-19T22:57:33;96063.50;;;21.63;43.16
44079;BME280;29744;49.078;12.878;2022-08-19T23:02:34;96064.28;;;21.64;43.20
44079;BME280;29744;49.078;12.878;2022-08-19T23:07:37;96061.94;;;21.62;43.26
44079;BME280;29744;49.078;12.878;2022-08-19T23:12:40;96066.22;;;21.63;43.31
44079;BME280;29744;49.078;12.878;2022-08-19T23:17:44;96054.91;;;21.61;43.00
44079;BME280;29744;49.078;12.878;2022-08-19T23:22:46;96061.16;;;21.62;43.13
44079;BME280;29744;49.078;12.878;2022-08-19T23:27:50;96063.88;;;21.62;43.11
44079;BME280;29744;49.078;12.878;2022-08-19T23:33:22;96060.38;;;21.61;43.15
44079;BME280;29744;49.078;12.878;2022-08-19T23:38:28;96062.31;;;21.61;43.56
44079;BME280;29744;49.078;12.878;2022-08-19T23:43:29;96073.22;;;21.61;43.24
44079;BME280;29744;49.078;12.878;2022-08-19T23:48:31;96072.00;;;21.58;43.06
44079;BME280;29744;49.078;12.878;2022-08-19T23:53:32;96076.75;;;21.61;42.96
44079;BME280;29744;49.078;12.878;2022-08-19T23:58:34;96073.22;;;21.61;43.34
